sensor_id;sensor_type;location;lat;lon;timestamp;P1;durP1;ratioP1;P2;durP2;ratioP2
47555;SDS011;33291;46.222;26.460;2022-11-25T00:00:22;41.85;;;25.00;;
47555;SDS011;33291;46.222;26.460;2022-11-25T00:02:47;42.63;;;25.40;;
47555;SDS011;33291;46.222;26.460;2022-11-25T00:05:13;42.13;;;24.00;;
47555;SDS011;33291;46.222;26.460;2022-11-25T00:07:38;40.33;;;25.40;;
47555;SDS011;33291;46.222;26.460;2022-11-25T00:10:04;44.72;;;24.83;;
47555;SDS011;33291;46.222;26.460;2022-11-25T00:12:30;42.33;;;23.80;;
47555;SDS011;33291;46.222;26.460;2022-11-25T00:14:56;41.58;;;25.40;;
47555;SDS011;33291;46.222;26.460;2022-11-25T00:17:21;49.83;;;28.40;;
47555;SDS011;33291;46.222;26.460;2022-11-25T00:19:47;46.97;;;26.83;;
47555;SDS011;33291;46.222;26.460;2022-11-25T00:22:13;42.08;;;26.13;;
47555;SDS011;33291;46.222;26.460;2022-11-25T00:24:39;46.65;;;26.88;;
47555;SDS011;33291;46.222;26.460;2022-11-25T00:27:05;43.60;;;25.48;;
47555;SDS011;33291;46.222;26.460;2022-11-25T00:29:31;43.17;;;24.95;;
47555;SDS011;33291;46.222;26.460;2022-11-25T00:31:56;44.63;;;26.40;;
47555;SDS011;33291;46.222;26.460;2022-11-25T00:34:22;44.72;;;26.17;;
47555;SDS011;33291;46.222;26.460;2022-11-25T00:36:47;45.83;;;26.70;;
47555;SDS011;33291;46.222;26.460;2022-11-25T00:39:14;45.15;;;26.27;;
47555;SDS011;33291;46.222;26.460;2022-11-25T00:41:41;43.13;;;25.88;;
47555;SDS011;33291;46.222;26.460;2022-11-25T00:44:26;45.47;;;26.33;;
47555;SDS011;33291;46.222;26.460;2022-11-25T00:47:02;48.65;;;26.55;;
47555;SDS011;33291;46.222;26.460;2022-11-25T00:49:29;47.95;;;27.25;;
47555;SDS011;33291;46.222;26.460;2022-11-25T00:51:54;55.35;;;31.35;;
47555;SDS011;33291;46.222;26.460;2022-11-25T00:54:20;64.18;;;32.92;;
47555;SDS011;33291;46.222;26.460;2022-11-25T00:56:46;60.45;;;31.70;;
47555;SDS011;33291;46.222;26.460;2022-11-25T00:59:11;51.15;;;29.85;;
47555;SDS011;33291;46.222;26.460;2022-11-25T01:01:37;53.33;;;29.23;;
47555;SDS011;33291;46.222;26.460;2022-11-25T01:04:03;47.47;;;27.58;;
47555;SDS011;33291;46.222;26.460;2022-11-25T01:06:29;51.28;;;28.67;;
47555;SDS011;33291;46.222;26.460;2022-11-25T01:08:55;54.25;;;29.20;;
47555;SDS011;33291;46.222;26.460;2022-11-25T01:11:21;50.15;;;28.05;;
47555;SDS011;33291;46.222;26.460;2022-11-25T01:13:47;50.03;;;28.27;;
47555;SDS011;33291;46.222;26.460;2022-11-25T01:16:15;52.63;;;28.58;;
47555;SDS011;33291;46.222;26.460;2022-11-25T01:18:42;52.90;;;28.30;;
47555;SDS011;33291;46.222;26.460;2022-11-25T01:23:44;53.22;;;26.55;;
47555;SDS011;33291;46.222;26.460;2022-11-25T01:26:11;55.55;;;29.67;;
47555;SDS011;33291;46.222;26.460;2022-11-25T01:28:39;51.67;;;26.65;;
47555;SDS011;33291;46.222;26.460;2022-11-25T01:31:06;49.92;;;27.45;;
47555;SDS011;33291;46.222;26.460;2022-11-25T01:33:36;51.05;;;28.33;;
47555;SDS011;33291;46.222;26.460;2022-11-25T01:36:07;47.10;;;27.15;;
47555;SDS011;33291;46.222;26.460;2022-11-25T01:38:37;47.38;;;26.20;;
47555;SDS011;33291;46.222;26.460;2022-11-25T01:41:04;54.55;;;26.50;;
47555;SDS011;33291;46.222;26.460;2022-11-25T01:43:31;49.95;;;26.42;;
47555;SDS011;33291;46.222;26.460;2022-11-25T01:46:00;48.70;;;26.17;;
47555;SDS011;33291;46.222;26.460;2022-11-25T01:48:42;49.75;;;26.88;;
47555;SDS011;33291;46.222;26.460;2022-11-25T01:51:30;48.22;;;25.30;;
47555;SDS011;33291;46.222;26.460;2022-11-25T01:54:02;39.83;;;22.40;;
47555;SDS011;33291;46.222;26.460;2022-11-25T01:56:32;47.95;;;25.40;;
47555;SDS011;33291;46.222;26.460;2022-11-25T01:59:03;54.17;;;27.48;;
47555;SDS011;33291;46.222;26.460;2022-11-25T02:01:29;46.35;;;23.77;;
47555;SDS011;33291;46.222;26.460;2022-11-25T02:03:55;47.22;;;25.90;;
47555;SDS011;33291;46.222;26.460;2022-11-25T02:06:22;46.63;;;23.60;;
47555;SDS011;33291;46.222;26.460;2022-11-25T02:08:55;41.03;;;22.55;;
47555;SDS011;33291;46.222;26.460;2022-11-25T02:11:25;41.90;;;23.63;;
47555;SDS011;33291;46.222;26.460;2022-11-25T02:13:53;45.03;;;22.90;;
47555;SDS011;33291;46.222;26.460;2022-11-25T02:16:19;43.35;;;24.08;;
47555;SDS011;33291;46.222;26.460;2022-11-25T02:18:44;41.08;;;23.08;;
47555;SDS011;33291;46.222;26.460;2022-11-25T02:21:10;47.13;;;23.55;;
47555;SDS011;33291;46.222;26.460;2022-11-25T02:23:43;38.95;;;22.10;;
47555;SDS011;33291;46.222;26.460;2022-11-25T02:26:16;42.95;;;23.08;;
47555;SDS011;33291;46.222;26.460;2022-11-25T02:28:41;44.33;;;23.77;;
47555;SDS011;33291;46.222;26.460;2022-11-25T02:31:07;39.17;;;23.42;;
47555;SDS011;33291;46.222;26.460;2022-11-25T02:33:33;40.90;;;22.88;;
47555;SDS011;33291;46.222;26.460;2022-11-25T02:35:59;43.28;;;22.50;;
47555;SDS011;33291;46.222;26.460;2022-11-25T02:38:36;39.63;;;23.20;;
47555;SDS011;33291;46.222;26.460;2022-11-25T02:41:18;42.60;;;22.33;;
47555;SDS011;33291;46.222;26.460;2022-11-25T02:43:47;40.60;;;23.17;;
47555;SDS011;33291;46.222;26.460;2022-11-25T02:46:13;41.60;;;23.50;;
47555;SDS011;33291;46.222;26.460;2022-11-25T02:48:41;42.63;;;23.58;;
47555;SDS011;33291;46.222;26.460;2022-11-25T02:51:08;41.83;;;22.85;;
47555;SDS011;33291;46.222;26.460;2022-11-25T02:53:35;44.75;;;23.33;;
47555;SDS011;33291;46.222;26.460;2022-11-25T02:56:01;38.75;;;21.55;;
47555;SDS011;33291;46.222;26.460;2022-11-25T02:58:27;38.67;;;21.95;;
47555;SDS011;33291;46.222;26.460;2022-11-25T03:00:53;38.08;;;20.38;;
47555;SDS011;33291;46.222;26.460;2022-11-25T03:03:19;36.88;;;21.75;;
47555;SDS011;33291;46.222;26.460;2022-11-25T03:05:44;34.05;;;20.50;;
47555;SDS011;33291;46.222;26.460;2022-11-25T03:08:10;38.90;;;22.25;;
47555;SDS011;33291;46.222;26.460;2022-11-25T03:10:36;36.30;;;19.77;;
47555;SDS011;33291;46.222;26.460;2022-11-25T03:13:02;36.60;;;19.48;;
47555;SDS011;33291;46.222;26.460;2022-11-25T03:15:28;33.90;;;19.95;;
47555;SDS011;33291;46.222;26.460;2022-11-25T03:17:54;33.20;;;18.30;;
47555;SDS011;33291;46.222;26.460;2022-11-25T03:20:19;34.55;;;19.83;;
47555;SDS011;33291;46.222;26.460;2022-11-25T03:22:45;35.10;;;19.98;;
47555;SDS011;33291;46.222;26.460;2022-11-25T03:25:11;31.52;;;19.25;;
47555;SDS011;33291;46.222;26.460;2022-11-25T03:27:38;35.35;;;19.15;;
47555;SDS011;33291;46.222;26.460;2022-11-25T03:30:05;35.38;;;21.20;;
47555;SDS011;33291;46.222;26.460;2022-11-25T03:32:32;33.22;;;19.15;;
47555;SDS011;33291;46.222;26.460;2022-11-25T03:34:58;30.83;;;19.80;;
47555;SDS011;33291;46.222;26.460;2022-11-25T03:37:24;33.25;;;18.83;;
47555;SDS011;33291;46.222;26.460;2022-11-25T03:39:49;34.65;;;19.85;;
47555;SDS011;33291;46.222;26.460;2022-11-25T03:42:15;35.17;;;18.85;;
47555;SDS011;33291;46.222;26.460;2022-11-25T03:44:40;31.50;;;18.30;;
47555;SDS011;33291;46.222;26.460;2022-11-25T03:47:06;30.65;;;16.95;;
47555;SDS011;33291;46.222;26.460;2022-11-25T03:49:31;31.45;;;18.48;;
47555;SDS011;33291;46.222;26.460;2022-11-25T03:51:57;29.85;;;18.23;;
47555;SDS011;33291;46.222;26.460;2022-11-25T03:54:23;33.80;;;19.35;;
47555;SDS011;33291;46.222;26.460;2022-11-25T03:56:49;30.48;;;17.77;;
47555;SDS011;33291;46.222;26.460;2022-11-25T03:59:15;30.00;;;18.52;;
47555;SDS011;33291;46.222;26.460;2022-11-25T04:01:40;29.83;;;18.05;;
47555;SDS011;33291;46.222;26.460;2022-11-25T04:04:06;33.83;;;19.77;;
47555;SDS011;33291;46.222;26.460;2022-11-25T04:06:31;32.92;;;19.63;;
47555;SDS011;33291;46.222;26.460;2022-11-25T04:08:57;34.28;;;19.88;;
47555;SDS011;33291;46.222;26.460;2022-11-25T04:11:24;33.85;;;19.70;;
47555;SDS011;33291;46.222;26.460;2022-11-25T04:14:09;35.90;;;20.05;;
47555;SDS011;33291;46.222;26.460;2022-11-25T04:16:35;31.58;;;19.25;;
47555;SDS011;33291;46.222;26.460;2022-11-25T04:19:00;34.58;;;19.48;;
47555;SDS011;33291;46.222;26.460;2022-11-25T04:21:25;35.05;;;19.85;;
47555;SDS011;33291;46.222;26.460;2022-11-25T04:23:51;30.50;;;18.20;;
47555;SDS011;33291;46.222;26.460;2022-11-25T04:26:16;39.13;;;21.33;;
47555;SDS011;33291;46.222;26.460;2022-11-25T04:28:42;67.95;;;37.85;;
47555;SDS011;33291;46.222;26.460;2022-11-25T04:31:08;33.53;;;19.55;;
47555;SDS011;33291;46.222;26.460;2022-11-25T04:33:33;30.27;;;18.15;;
47555;SDS011;33291;46.222;26.460;2022-11-25T04:35:59;29.73;;;17.83;;
47555;SDS011;33291;46.222;26.460;2022-11-25T04:38:24;29.17;;;17.33;;
47555;SDS011;33291;46.222;26.460;2022-11-25T04:40:50;27.40;;;17.27;;
47555;SDS011;33291;46.222;26.460;2022-11-25T04:43:15;32.67;;;18.35;;
47555;SDS011;33291;46.222;26.460;2022-11-25T04:45:41;30.20;;;17.98;;
47555;SDS011;33291;46.222;26.460;2022-11-25T04:48:06;28.63;;;17.42;;
47555;SDS011;33291;46.222;26.460;2022-11-25T04:50:32;28.33;;;16.67;;
47555;SDS011;33291;46.222;26.460;2022-11-25T04:52:57;30.00;;;18.38;;
47555;SDS011;33291;46.222;26.460;2022-11-25T04:55:23;26.73;;;17.05;;
47555;SDS011;33291;46.222;26.460;2022-11-25T04:57:48;30.40;;;18.10;;
47555;SDS011;33291;46.222;26.460;2022-11-25T05:00:14;32.17;;;18.88;;
47555;SDS011;33291;46.222;26.460;2022-11-25T05:02:40;29.38;;;18.25;;
47555;SDS011;33291;46.222;26.460;2022-11-25T05:05:06;35.30;;;18.95;;
47555;SDS011;33291;46.222;26.460;2022-11-25T05:07:32;28.58;;;17.60;;
47555;SDS011;33291;46.222;26.460;2022-11-25T05:09:57;30.13;;;18.70;;
47555;SDS011;33291;46.222;26.460;2022-11-25T05:12:24;30.33;;;17.52;;
47555;SDS011;33291;46.222;26.460;2022-11-25T05:14:52;25.83;;;15.88;;
47555;SDS011;33291;46.222;26.460;2022-11-25T05:17:19;29.98;;;18.75;;
47555;SDS011;33291;46.222;26.460;2022-11-25T05:19:47;27.10;;;16.70;;
47555;SDS011;33291;46.222;26.460;2022-11-25T05:22:14;31.70;;;18.83;;
47555;SDS011;33291;46.222;26.460;2022-11-25T05:24:42;28.60;;;16.35;;
47555;SDS011;33291;46.222;26.460;2022-11-25T05:27:08;37.53;;;21.40;;
47555;SDS011;33291;46.222;26.460;2022-11-25T05:29:34;30.25;;;18.05;;
47555;SDS011;33291;46.222;26.460;2022-11-25T05:32:00;33.88;;;17.88;;
47555;SDS011;33291;46.222;26.460;2022-11-25T05:34:25;32.75;;;19.23;;
47555;SDS011;33291;46.222;26.460;2022-11-25T05:36:51;29.65;;;16.65;;
47555;SDS011;33291;46.222;26.460;2022-11-25T05:39:17;30.95;;;16.90;;
47555;SDS011;33291;46.222;26.460;2022-11-25T05:41:42;29.40;;;17.67;;
47555;SDS011;33291;46.222;26.460;2022-11-25T05:44:08;28.10;;;15.55;;
47555;SDS011;33291;46.222;26.460;2022-11-25T05:46:34;31.08;;;16.27;;
47555;SDS011;33291;46.222;26.460;2022-11-25T05:48:59;28.92;;;16.33;;
47555;SDS011;33291;46.222;26.460;2022-11-25T05:51:25;26.75;;;14.93;;
47555;SDS011;33291;46.222;26.460;2022-11-25T05:53:52;25.50;;;15.43;;
47555;SDS011;33291;46.222;26.460;2022-11-25T05:56:17;25.90;;;16.35;;
47555;SDS011;33291;46.222;26.460;2022-11-25T05:58:43;26.50;;;15.63;;
47555;SDS011;33291;46.222;26.460;2022-11-25T06:01:10;24.63;;;15.32;;
47555;SDS011;33291;46.222;26.460;2022-11-25T06:03:37;27.77;;;14.95;;
47555;SDS011;33291;46.222;26.460;2022-11-25T06:06:03;25.38;;;16.13;;
47555;SDS011;33291;46.222;26.460;2022-11-25T06:08:30;26.98;;;15.48;;
47555;SDS011;33291;46.222;26.460;2022-11-25T06:10:56;29.65;;;17.80;;
47555;SDS011;33291;46.222;26.460;2022-11-25T06:13:22;26.15;;;16.55;;
47555;SDS011;33291;46.222;26.460;2022-11-25T06:15:48;28.05;;;15.80;;
47555;SDS011;33291;46.222;26.460;2022-11-25T06:18:14;27.55;;;16.30;;
47555;SDS011;33291;46.222;26.460;2022-11-25T06:20:41;25.90;;;15.23;;
47555;SDS011;33291;46.222;26.460;2022-11-25T06:23:08;28.90;;;15.48;;
47555;SDS011;33291;46.222;26.460;2022-11-25T06:25:34;25.92;;;14.63;;
47555;SDS011;33291;46.222;26.460;2022-11-25T06:28:00;31.30;;;16.10;;
47555;SDS011;33291;46.222;26.460;2022-11-25T06:30:26;25.75;;;15.07;;
47555;SDS011;33291;46.222;26.460;2022-11-25T06:32:55;27.83;;;14.98;;
47555;SDS011;33291;46.222;26.460;2022-11-25T06:35:20;25.52;;;14.10;;
47555;SDS011;33291;46.222;26.460;2022-11-25T06:37:46;33.53;;;17.25;;
47555;SDS011;33291;46.222;26.460;2022-11-25T06:40:12;30.50;;;17.67;;
47555;SDS011;33291;46.222;26.460;2022-11-25T06:42:37;27.75;;;17.17;;
47555;SDS011;33291;46.222;26.460;2022-11-25T06:45:04;38.00;;;18.50;;
47555;SDS011;33291;46.222;26.460;2022-11-25T06:47:30;32.53;;;18.17;;
47555;SDS011;33291;46.222;26.460;2022-11-25T06:49:56;27.50;;;17.75;;
47555;SDS011;33291;46.222;26.460;2022-11-25T06:52:22;31.27;;;18.05;;
47555;SDS011;33291;46.222;26.460;2022-11-25T06:54:47;29.63;;;17.52;;
47555;SDS011;33291;46.222;26.460;2022-11-25T06:57:15;31.25;;;18.13;;
47555;SDS011;33291;46.222;26.460;2022-11-25T06:59:42;37.55;;;20.63;;
47555;SDS011;33291;46.222;26.460;2022-11-25T07:02:09;39.92;;;21.20;;
47555;SDS011;33291;46.222;26.460;2022-11-25T07:04:36;50.67;;;27.48;;
47555;SDS011;33291;46.222;26.460;2022-11-25T07:07:01;42.17;;;22.48;;
47555;SDS011;33291;46.222;26.460;2022-11-25T07:09:28;38.03;;;20.30;;
47555;SDS011;33291;46.222;26.460;2022-11-25T07:11:53;29.42;;;18.38;;
47555;SDS011;33291;46.222;26.460;2022-11-25T07:14:19;37.75;;;21.48;;
47555;SDS011;33291;46.222;26.460;2022-11-25T07:16:44;31.80;;;17.88;;
47555;SDS011;33291;46.222;26.460;2022-11-25T07:19:11;32.72;;;18.42;;
47555;SDS011;33291;46.222;26.460;2022-11-25T07:21:38;31.70;;;18.65;;
47555;SDS011;33291;46.222;26.460;2022-11-25T07:24:04;33.72;;;18.73;;
47555;SDS011;33291;46.222;26.460;2022-11-25T07:26:32;33.95;;;19.23;;
47555;SDS011;33291;46.222;26.460;2022-11-25T07:29:03;39.15;;;20.85;;
47555;SDS011;33291;46.222;26.460;2022-11-25T07:31:32;32.28;;;18.20;;
47555;SDS011;33291;46.222;26.460;2022-11-25T07:34:06;34.78;;;19.58;;
47555;SDS011;33291;46.222;26.460;2022-11-25T07:36:35;30.65;;;18.40;;
47555;SDS011;33291;46.222;26.460;2022-11-25T07:39:02;35.70;;;18.35;;
47555;SDS011;33291;46.222;26.460;2022-11-25T07:41:30;34.15;;;19.92;;
47555;SDS011;33291;46.222;26.460;2022-11-25T07:44:00;33.53;;;17.42;;
47555;SDS011;33291;46.222;26.460;2022-11-25T07:46:28;38.22;;;19.35;;
47555;SDS011;33291;46.222;26.460;2022-11-25T07:48:54;32.17;;;18.30;;
47555;SDS011;33291;46.222;26.460;2022-11-25T07:51:23;27.35;;;15.20;;
47555;SDS011;33291;46.222;26.460;2022-11-25T07:53:52;26.42;;;15.98;;
47555;SDS011;33291;46.222;26.460;2022-11-25T07:56:20;23.50;;;14.40;;
47555;SDS011;33291;46.222;26.460;2022-11-25T07:58:46;29.65;;;15.23;;
47555;SDS011;33291;46.222;26.460;2022-11-25T08:01:12;26.02;;;15.30;;
47555;SDS011;33291;46.222;26.460;2022-11-25T08:03:39;22.80;;;13.30;;
47555;SDS011;33291;46.222;26.460;2022-11-25T08:06:07;22.58;;;13.13;;
47555;SDS011;33291;46.222;26.460;2022-11-25T08:08:35;24.35;;;14.38;;
47555;SDS011;33291;46.222;26.460;2022-11-25T08:11:08;26.02;;;14.68;;
47555;SDS011;33291;46.222;26.460;2022-11-25T08:13:36;24.67;;;15.07;;
47555;SDS011;33291;46.222;26.460;2022-11-25T08:16:02;26.85;;;16.38;;
47555;SDS011;33291;46.222;26.460;2022-11-25T08:18:28;26.63;;;13.95;;
47555;SDS011;33291;46.222;26.460;2022-11-25T08:21:00;25.05;;;14.73;;
47555;SDS011;33291;46.222;26.460;2022-11-25T08:23:29;30.75;;;15.98;;
47555;SDS011;33291;46.222;26.460;2022-11-25T08:25:55;24.30;;;12.98;;
47555;SDS011;33291;46.222;26.460;2022-11-25T08:28:20;25.92;;;15.30;;
47555;SDS011;33291;46.222;26.460;2022-11-25T08:30:46;24.63;;;14.48;;
47555;SDS011;33291;46.222;26.460;2022-11-25T08:33:11;24.45;;;15.48;;
47555;SDS011;33291;46.222;26.460;2022-11-25T08:35:37;23.98;;;14.55;;
47555;SDS011;33291;46.222;26.460;2022-11-25T08:38:06;26.35;;;16.23;;
47555;SDS011;33291;46.222;26.460;2022-11-25T08:40:33;28.10;;;16.27;;
47555;SDS011;33291;46.222;26.460;2022-11-25T08:43:00;28.58;;;16.88;;
47555;SDS011;33291;46.222;26.460;2022-11-25T08:45:26;25.00;;;15.88;;
47555;SDS011;33291;46.222;26.460;2022-11-25T08:47:51;24.98;;;14.85;;
47555;SDS011;33291;46.222;26.460;2022-11-25T08:50:17;27.08;;;15.77;;
47555;SDS011;33291;46.222;26.460;2022-11-25T08:52:42;25.52;;;16.95;;
47555;SDS011;33291;46.222;26.460;2022-11-25T08:55:08;23.00;;;15.93;;
47555;SDS011;33291;46.222;26.460;2022-11-25T08:57:33;26.67;;;16.08;;
47555;SDS011;33291;46.222;26.460;2022-11-25T08:59:59;27.38;;;17.23;;
47555;SDS011;33291;46.222;26.460;2022-11-25T09:02:24;27.73;;;16.15;;
47555;SDS011;33291;46.222;26.460;2022-11-25T09:04:50;26.90;;;15.65;;
47555;SDS011;33291;46.222;26.460;2022-11-25T09:07:16;22.90;;;13.35;;
47555;SDS011;33291;46.222;26.460;2022-11-25T09:09:42;22.27;;;13.95;;
47555;SDS011;33291;46.222;26.460;2022-11-25T09:12:08;25.58;;;14.50;;
47555;SDS011;33291;46.222;26.460;2022-11-25T09:14:33;23.90;;;14.55;;
47555;SDS011;33291;46.222;26.460;2022-11-25T09:16:59;22.67;;;13.48;;
47555;SDS011;33291;46.222;26.460;2022-11-25T09:19:26;19.52;;;11.93;;
47555;SDS011;33291;46.222;26.460;2022-11-25T09:21:52;19.08;;;12.98;;
47555;SDS011;33291;46.222;26.460;2022-11-25T09:24:18;23.90;;;12.50;;
47555;SDS011;33291;46.222;26.460;2022-11-25T09:26:44;18.52;;;11.55;;
47555;SDS011;33291;46.222;26.460;2022-11-25T09:29:11;18.10;;;12.75;;
47555;SDS011;33291;46.222;26.460;2022-11-25T09:31:38;17.90;;;12.45;;
47555;SDS011;33291;46.222;26.460;2022-11-25T09:34:03;18.20;;;11.60;;
47555;SDS011;33291;46.222;26.460;2022-11-25T09:36:29;18.10;;;11.50;;
47555;SDS011;33291;46.222;26.460;2022-11-25T09:38:55;18.75;;;11.80;;
47555;SDS011;33291;46.222;26.460;2022-11-25T09:47:29;18.60;;;11.88;;
47555;SDS011;33291;46.222;26.460;2022-11-25T09:53:32;20.27;;;12.95;;
47555;SDS011;33291;46.222;26.460;2022-11-25T09:56:04;24.45;;;13.00;;
47555;SDS011;33291;46.222;26.460;2022-11-25T10:01:20;26.95;;;13.27;;
47555;SDS011;33291;46.222;26.460;2022-11-25T10:03:55;20.08;;;12.95;;
47555;SDS011;33291;46.222;26.460;2022-11-25T10:06:28;21.95;;;13.82;;
47555;SDS011;33291;46.222;26.460;2022-11-25T10:19:00;26.25;;;15.27;;
47555;SDS011;33291;46.222;26.460;2022-11-25T10:21:31;26.48;;;15.02;;
47555;SDS011;33291;46.222;26.460;2022-11-25T10:23:57;24.70;;;14.57;;
47555;SDS011;33291;46.222;26.460;2022-11-25T10:26:26;23.05;;;14.68;;
47555;SDS011;33291;46.222;26.460;2022-11-25T10:29:05;23.15;;;14.07;;
47555;SDS011;33291;46.222;26.460;2022-11-25T10:31:34;22.45;;;14.45;;
47555;SDS011;33291;46.222;26.460;2022-11-25T10:34:00;23.60;;;14.40;;
47555;SDS011;33291;46.222;26.460;2022-11-25T10:36:35;19.13;;;12.70;;
47555;SDS011;33291;46.222;26.460;2022-11-25T10:44:29;24.55;;;14.55;;
47555;SDS011;33291;46.222;26.460;2022-11-25T10:52:32;23.58;;;13.15;;
47555;SDS011;33291;46.222;26.460;2022-11-25T10:55:10;18.73;;;12.68;;
47555;SDS011;33291;46.222;26.460;2022-11-25T10:57:40;18.33;;;12.82;;
47555;SDS011;33291;46.222;26.460;2022-11-25T11:00:07;19.85;;;13.55;;
47555;SDS011;33291;46.222;26.460;2022-11-25T11:02:59;22.83;;;16.08;;
47555;SDS011;33291;46.222;26.460;2022-11-25T11:05:42;20.60;;;14.10;;
47555;SDS011;33291;46.222;26.460;2022-11-25T11:08:20;23.38;;;14.63;;
47555;SDS011;33291;46.222;26.460;2022-11-25T11:11:14;24.67;;;15.80;;
47555;SDS011;33291;46.222;26.460;2022-11-25T11:13:39;21.15;;;13.15;;
47555;SDS011;33291;46.222;26.460;2022-11-25T11:18:52;21.35;;;13.07;;
47555;SDS011;33291;46.222;26.460;2022-11-25T11:21:20;24.13;;;15.05;;
47555;SDS011;33291;46.222;26.460;2022-11-25T11:23:57;24.83;;;15.75;;
47555;SDS011;33291;46.222;26.460;2022-11-25T11:26:25;26.00;;;16.17;;
47555;SDS011;33291;46.222;26.460;2022-11-25T11:29:04;28.00;;;17.42;;
47555;SDS011;33291;46.222;26.460;2022-11-25T11:31:43;32.95;;;18.75;;
47555;SDS011;33291;46.222;26.460;2022-11-25T11:45:47;29.13;;;19.02;;
47555;SDS011;33291;46.222;26.460;2022-11-25T11:48:49;29.30;;;18.80;;
47555;SDS011;33291;46.222;26.460;2022-11-25T11:54:09;27.60;;;18.95;;
47555;SDS011;33291;46.222;26.460;2022-11-25T11:56:41;27.02;;;16.95;;
47555;SDS011;33291;46.222;26.460;2022-11-25T12:02:07;30.38;;;19.02;;
47555;SDS011;33291;46.222;26.460;2022-11-25T12:07:37;31.45;;;16.27;;
47555;SDS011;33291;46.222;26.460;2022-11-25T12:26:59;27.60;;;17.60;;
47555;SDS011;33291;46.222;26.460;2022-11-25T12:29:34;30.08;;;19.25;;
47555;SDS011;33291;46.222;26.460;2022-11-25T12:40:40;24.13;;;17.08;;
47555;SDS011;33291;46.222;26.460;2022-11-25T12:46:05;22.80;;;15.30;;
47555;SDS011;33291;46.222;26.460;2022-11-25T12:48:31;24.50;;;14.27;;
47555;SDS011;33291;46.222;26.460;2022-11-25T12:54:05;26.00;;;15.80;;
47555;SDS011;33291;46.222;26.460;2022-11-25T13:15:43;25.00;;;16.80;;
47555;SDS011;33291;46.222;26.460;2022-11-25T13:18:12;24.58;;;16.17;;
47555;SDS011;33291;46.222;26.460;2022-11-25T13:25:43;30.10;;;16.52;;
47555;SDS011;33291;46.222;26.460;2022-11-25T13:31:20;22.40;;;14.95;;
47555;SDS011;33291;46.222;26.460;2022-11-25T13:39:13;59.95;;;39.33;;
47555;SDS011;33291;46.222;26.460;2022-11-25T13:41:43;29.92;;;20.67;;
47555;SDS011;33291;46.222;26.460;2022-11-25T13:44:21;34.78;;;22.27;;
47555;SDS011;33291;46.222;26.460;2022-11-25T13:46:52;28.05;;;17.40;;
47555;SDS011;33291;46.222;26.460;2022-11-25T13:52:23;37.15;;;18.40;;
47555;SDS011;33291;46.222;26.460;2022-11-25T13:55:01;25.15;;;16.88;;
47555;SDS011;33291;46.222;26.460;2022-11-25T13:57:45;32.53;;;22.08;;
47555;SDS011;33291;46.222;26.460;2022-11-25T14:02:39;39.00;;;26.33;;
47555;SDS011;33291;46.222;26.460;2022-11-25T14:08:00;28.02;;;16.60;;
47555;SDS011;33291;46.222;26.460;2022-11-25T14:21:53;46.83;;;26.90;;
47555;SDS011;33291;46.222;26.460;2022-11-25T14:27:11;25.75;;;17.10;;
47555;SDS011;33291;46.222;26.460;2022-11-25T14:32:11;36.20;;;22.02;;
47555;SDS011;33291;46.222;26.460;2022-11-25T14:34:53;33.83;;;21.48;;
47555;SDS011;33291;46.222;26.460;2022-11-25T14:37:36;37.67;;;19.10;;
47555;SDS011;33291;46.222;26.460;2022-11-25T14:42:40;41.10;;;20.95;;
47555;SDS011;33291;46.222;26.460;2022-11-25T14:45:18;40.90;;;21.45;;
47555;SDS011;33291;46.222;26.460;2022-11-25T14:47:50;38.67;;;22.85;;
47555;SDS011;33291;46.222;26.460;2022-11-25T14:50:15;39.20;;;22.45;;
47555;SDS011;33291;46.222;26.460;2022-11-25T14:52:41;38.83;;;22.48;;
47555;SDS011;33291;46.222;26.460;2022-11-25T14:55:08;33.47;;;20.77;;
47555;SDS011;33291;46.222;26.460;2022-11-25T14:57:36;22.25;;;14.55;;
47555;SDS011;33291;46.222;26.460;2022-11-25T15:00:14;32.00;;;19.80;;
47555;SDS011;33291;46.222;26.460;2022-11-25T15:02:51;34.67;;;20.75;;
47555;SDS011;33291;46.222;26.460;2022-11-25T15:05:25;50.30;;;28.27;;
47555;SDS011;33291;46.222;26.460;2022-11-25T15:12:57;44.72;;;27.00;;
47555;SDS011;33291;46.222;26.460;2022-11-25T15:15:24;44.22;;;26.98;;
47555;SDS011;33291;46.222;26.460;2022-11-25T15:17:51;43.72;;;26.17;;
47555;SDS011;33291;46.222;26.460;2022-11-25T15:20:19;63.13;;;28.05;;
47555;SDS011;33291;46.222;26.460;2022-11-25T15:22:45;46.22;;;27.17;;
47555;SDS011;33291;46.222;26.460;2022-11-25T15:25:13;41.17;;;24.65;;
47555;SDS011;33291;46.222;26.460;2022-11-25T15:27:43;29.98;;;17.92;;
47555;SDS011;33291;46.222;26.460;2022-11-25T15:30:23;40.08;;;23.33;;
47555;SDS011;33291;46.222;26.460;2022-11-25T15:32:51;55.58;;;30.75;;
47555;SDS011;33291;46.222;26.460;2022-11-25T15:35:22;49.42;;;27.45;;
47555;SDS011;33291;46.222;26.460;2022-11-25T15:37:49;51.70;;;27.25;;
47555;SDS011;33291;46.222;26.460;2022-11-25T15:40:37;55.55;;;31.90;;
47555;SDS011;33291;46.222;26.460;2022-11-25T15:43:18;51.85;;;27.98;;
47555;SDS011;33291;46.222;26.460;2022-11-25T15:45:47;111.30;;;59.50;;
47555;SDS011;33291;46.222;26.460;2022-11-25T15:48:15;134.32;;;71.78;;
47555;SDS011;33291;46.222;26.460;2022-11-25T15:51:06;119.75;;;71.65;;
47555;SDS011;33291;46.222;26.460;2022-11-25T15:53:51;113.60;;;66.22;;
47555;SDS011;33291;46.222;26.460;2022-11-25T15:56:19;66.15;;;39.28;;
47555;SDS011;33291;46.222;26.460;2022-11-25T15:58:48;77.05;;;41.28;;
47555;SDS011;33291;46.222;26.460;2022-11-25T16:03:39;76.70;;;42.22;;
47555;SDS011;33291;46.222;26.460;2022-11-25T16:06:23;75.47;;;41.17;;
47555;SDS011;33291;46.222;26.460;2022-11-25T16:08:53;69.05;;;40.03;;
47555;SDS011;33291;46.222;26.460;2022-11-25T16:11:24;76.53;;;40.55;;
47555;SDS011;33291;46.222;26.460;2022-11-25T16:13:54;99.22;;;46.25;;
47555;SDS011;33291;46.222;26.460;2022-11-25T16:16:40;97.85;;;49.63;;
47555;SDS011;33291;46.222;26.460;2022-11-25T16:26:28;95.25;;;48.55;;
47555;SDS011;33291;46.222;26.460;2022-11-25T16:28:58;85.05;;;45.15;;
47555;SDS011;33291;46.222;26.460;2022-11-25T16:31:25;93.15;;;46.10;;
47555;SDS011;33291;46.222;26.460;2022-11-25T16:36:41;118.32;;;64.70;;
47555;SDS011;33291;46.222;26.460;2022-11-25T16:39:07;96.95;;;53.25;;
47555;SDS011;33291;46.222;26.460;2022-11-25T16:41:33;97.63;;;50.97;;
47555;SDS011;33291;46.222;26.460;2022-11-25T16:44:00;106.10;;;54.10;;
47555;SDS011;33291;46.222;26.460;2022-11-25T16:46:28;94.10;;;49.22;;
47555;SDS011;33291;46.222;26.460;2022-11-25T16:48:54;69.07;;;36.63;;
47555;SDS011;33291;46.222;26.460;2022-11-25T16:51:20;57.00;;;31.63;;
47555;SDS011;33291;46.222;26.460;2022-11-25T16:53:48;51.22;;;28.00;;
47555;SDS011;33291;46.222;26.460;2022-11-25T16:56:17;61.88;;;33.38;;
47555;SDS011;33291;46.222;26.460;2022-11-25T16:58:49;71.82;;;36.53;;
47555;SDS011;33291;46.222;26.460;2022-11-25T17:01:15;101.07;;;49.45;;
47555;SDS011;33291;46.222;26.460;2022-11-25T17:03:43;92.38;;;47.70;;